Time;durP1;ratioP1;P1;durP2;ratioP2;P2;SDS_P1;SDS_P2;PMS_P1;PMS_P2;Temp;Humidity;BMP_temperature;BMP_pressure;BME280_temperature;BME280_humidity;BME280_pressure;Samples;Min_cycle;Max_cycle;Signal;HPM_P1;HPM_P2
2023/04/15 00:00:33;;;;;;;38.95;24.70;;;10.60;99.90;;;;;;5001522;28;20223;-86
2023/04/15 00:03:01;;;;;;;38.63;24.90;;;10.60;99.90;;;;;;5000324;28;20215;-86
2023/04/15 00:05:31;;;;;;;28.17;21.90;;;10.70;99.90;;;;;;5008047;28;20241;-87
2023/04/15 00:07:58;;;;;;;31.80;21.80;;;10.70;99.90;;;;;;4997808;28;20202;-85
2023/04/15 00:10:25;;;;;;;26.27;21.20;;;10.60;99.90;;;;;;5008327;28;20228;-84
2023/04/15 00:12:53;;;;;;;22.13;18.20;;;10.60;99.90;;;;;;5004479;28;20226;-86
2023/04/15 00:15:19;;;;;;;19.63;17.52;;;10.60;99.90;;;;;;5012377;28;20253;-85
2023/04/15 00:17:49;;;;;;;18.27;16.13;;;10.60;99.90;;;;;;5000764;28;20250;-86
2023/04/15 00:20:16;;;;;;;17.83;15.93;;;10.60;99.90;;;;;;5007205;28;20225;-84
2023/04/15 00:22:43;;;;;;;16.85;15.15;;;10.60;99.90;;;;;;5007340;28;20277;-85
2023/04/15 00:25:10;;;;;;;19.38;15.95;;;11.40;99.90;;;;;;5004269;28;20256;-86
2023/04/15 00:27:37;;;;;;;19.00;16.95;;;10.70;99.90;;;;;;5006877;28;20220;-85
2023/04/15 00:30:05;;;;;;;18.58;16.42;;;10.70;99.90;;;;;;5000523;28;20214;-85
2023/04/15 00:32:32;;;;;;;16.05;14.35;;;10.60;99.90;;;;;;5008105;28;20426;-84
2023/04/15 00:34:59;;;;;;;15.30;13.50;;;10.60;99.90;;;;;;5003828;28;20458;-84
2023/04/15 00:37:26;;;;;;;18.15;16.05;;;10.70;99.90;;;;;;5010047;28;20361;-86
2023/04/15 00:39:52;;;;;;;16.65;13.77;;;10.50;99.90;;;;;;4997382;28;20365;-84
2023/04/15 00:42:20;;;;;;;16.42;14.68;;;10.60;99.90;;;;;;5008354;28;20507;-89
2023/04/15 00:44:47;;;;;;;15.30;13.23;;;10.60;99.90;;;;;;5004541;28;20192;-84
2023/04/15 00:47:16;;;;;;;16.05;11.32;;;10.70;99.90;;;;;;5002341;28;20635;-82
2023/04/15 00:49:43;;;;;;;14.48;12.98;;;10.80;99.90;;;;;;5002509;28;20326;-84
2023/04/15 00:52:10;;;;;;;16.42;13.13;;;10.80;99.90;;;;;;5003747;28;20259;-86
2023/04/15 00:54:37;;;;;;;15.55;13.95;;;10.80;99.90;;;;;;5000948;28;20207;-84
2023/04/15 00:57:05;;;;;;;13.35;11.57;;;10.80;99.90;;;;;;5000991;28;20213;-84
2023/04/15 00:59:33;;;;;;;18.08;13.75;;;10.70;99.90;;;;;;5000011;28;20223;-86
2023/04/15 01:02:00;;;;;;;16.02;12.38;;;10.80;99.90;;;;;;5011924;28;20227;-86
2023/04/15 01:04:28;;;;;;;13.25;11.85;;;10.70;99.90;;;;;;5003812;28;20231;-85
2023/04/15 01:06:55;;;;;;;14.27;12.65;;;10.80;99.90;;;;;;5012394;28;20214;-85
2023/04/15 01:09:22;;;;;;;14.95;12.80;;;10.70;99.90;;;;;;5003394;28;20211;-85
2023/04/15 01:11:49;;;;;;;14.32;12.77;;;10.70;99.90;;;;;;5001247;28;20280;-87
2023/04/15 01:14:16;;;;;;;15.88;12.45;;;10.80;99.90;;;;;;5012912;28;20204;-84
2023/04/15 01:16:44;;;;;;;15.27;12.80;;;10.70;99.90;;;;;;5009766;28;20190;-82
2023/04/15 01:19:13;;;;;;;12.25;10.95;;;10.70;99.90;;;;;;5008775;28;20272;-84
2023/04/15 01:21:41;;;;;;;14.98;13.25;;;10.70;99.90;;;;;;5006941;28;20220;-84
2023/04/15 01:24:10;;;;;;;14.73;11.38;;;10.80;99.90;;;;;;5007827;28;20549;-85
2023/04/15 01:26:38;;;;;;;15.38;12.82;;;10.80;99.90;;;;;;5014674;28;20208;-85
2023/04/15 01:29:05;;;;;;;15.38;11.55;;;10.80;99.90;;;;;;5006478;28;20257;-85
2023/04/15 01:31:32;;;;;;;17.25;12.15;;;10.70;99.90;;;;;;5003577;28;20217;-85
2023/04/15 01:33:59;;;;;;;12.68;10.60;;;10.70;99.90;;;;;;5000737;28;20215;-84
2023/04/15 01:36:27;;;;;;;12.15;11.02;;;10.70;99.90;;;;;;5003584;28;20206;-85
2023/04/15 01:38:55;;;;;;;11.70;10.50;;;10.70;99.90;;;;;;5001906;28;20281;-85
2023/04/15 01:41:26;;;;;;;18.33;11.93;;;10.70;99.90;;;;;;5004509;28;20240;-85
2023/04/15 01:43:54;;;;;;;16.27;12.32;;;10.70;99.90;;;;;;4999161;28;20235;-85
2023/04/15 01:46:22;;;;;;;14.80;12.00;;;10.70;99.90;;;;;;5007879;28;20212;-85
2023/04/15 01:48:49;;;;;;;15.52;12.38;;;10.70;99.90;;;;;;5007821;28;20262;-84
2023/04/15 01:51:16;;;;;;;12.40;11.10;;;10.70;99.90;;;;;;5018017;28;20308;-85
2023/04/15 01:53:43;;;;;;;15.55;12.20;;;10.70;99.90;;;;;;5009954;28;20593;-84
2023/04/15 01:56:10;;;;;;;17.65;12.60;;;10.80;99.90;;;;;;5024989;28;20570;-85
2023/04/15 01:58:37;;;;;;;17.08;11.60;;;10.70;99.90;;;;;;4999772;28;20425;-84
2023/04/15 02:01:04;;;;;;;16.58;13.20;;;10.70;99.90;;;;;;4998556;28;20237;-85
2023/04/15 02:03:31;;;;;;;14.05;12.55;;;10.80;99.90;;;;;;5008183;28;20526;-83
2023/04/15 02:05:58;;;;;;;15.45;11.57;;;10.90;99.90;;;;;;5000945;28;20204;-83
2023/04/15 02:08:25;;;;;;;12.13;10.93;;;10.70;99.90;;;;;;4994531;28;20258;-85
2023/04/15 02:10:53;;;;;;;18.02;13.52;;;10.80;99.90;;;;;;5013517;28;20481;-87
2023/04/15 02:13:20;;;;;;;12.07;10.93;;;10.80;99.90;;;;;;5004206;28;20221;-84
2023/04/15 02:15:51;;;;;;;15.98;13.75;;;10.70;99.90;;;;;;5013867;28;20195;-85
2023/04/15 02:18:18;;;;;;;17.58;13.43;;;10.80;99.90;;;;;;5005950;28;20195;-84
2023/04/15 02:20:45;;;;;;;13.80;11.35;;;10.70;99.90;;;;;;5010481;28;20202;-85
2023/04/15 02:23:12;;;;;;;15.48;13.82;;;10.70;99.90;;;;;;5025807;28;20202;-84
2023/04/15 02:25:39;;;;;;;16.52;12.57;;;10.50;99.90;;;;;;5010363;28;20212;-84
2023/04/15 02:28:06;;;;;;;18.02;13.05;;;10.40;99.90;;;;;;5012875;28;20187;-83
2023/04/15 02:30:33;;;;;;;16.00;12.88;;;10.50;99.90;;;;;;5024684;28;20189;-83
2023/04/15 02:33:00;;;;;;;15.07;12.85;;;10.30;99.90;;;;;;5011551;28;20215;-86
2023/04/15 02:35:28;;;;;;;13.35;12.00;;;10.40;99.90;;;;;;5014240;28;20263;-85
2023/04/15 02:37:55;;;;;;;14.85;12.45;;;10.60;99.90;;;;;;5008202;28;20251;-85
2023/04/15 02:40:22;;;;;;;15.90;14.30;;;10.60;99.90;;;;;;5003835;28;20219;-85
2023/04/15 02:42:49;;;;;;;17.05;13.48;;;10.30;99.90;;;;;;5010630;28;20245;-84
2023/04/15 02:45:18;;;;;;;16.85;14.75;;;10.10;99.90;;;;;;5013940;28;20202;-84
2023/04/15 02:47:46;;;;;;;18.02;13.05;;;10.20;99.90;;;;;;5008145;28;20233;-83
2023/04/15 02:50:14;;;;;;;22.73;15.02;;;10.20;99.90;;;;;;4998265;28;20470;-85
2023/04/15 02:52:42;;;;;;;19.70;14.38;;;10.20;99.90;;;;;;4999879;28;20214;-84
2023/04/15 02:55:09;;;;;;;23.38;15.68;;;10.10;99.90;;;;;;5004115;28;20209;-84
2023/04/15 02:57:37;;;;;;;19.35;16.40;;;10.10;99.90;;;;;;5010626;28;20215;-84
2023/04/15 03:00:08;;;;;;;19.02;16.50;;;10.10;99.90;;;;;;4991448;28;20217;-85
2023/04/15 03:02:37;;;;;;;19.88;15.40;;;10.10;99.90;;;;;;5000618;28;20654;-84
2023/04/15 03:05:05;;;;;;;23.50;16.90;;;10.00;99.90;;;;;;5011605;28;20210;-83
2023/04/15 03:07:32;;;;;;;22.70;17.30;;;10.00;99.90;;;;;;5015444;28;20200;-84
2023/04/15 03:09:59;;;;;;;18.83;15.60;;;10.10;99.90;;;;;;5013246;28;20214;-84
2023/04/15 03:12:25;;;;;;;20.40;16.40;;;10.00;99.90;;;;;;5006513;28;20513;-82
2023/04/15 03:14:52;;;;;;;26.25;17.08;;;10.00;99.90;;;;;;5004927;28;20198;-84
2023/04/15 03:17:19;;;;;;;21.77;16.67;;;9.90;99.90;;;;;;5005673;28;20212;-86
2023/04/15 03:19:46;;;;;;;18.55;14.65;;;10.10;99.90;;;;;;5007223;28;20265;-84
2023/04/15 03:22:13;;;;;;;19.45;17.35;;;9.80;99.90;;;;;;5011052;28;20230;-84
2023/04/15 03:24:40;;;;;;;17.23;14.85;;;9.80;99.90;;;;;;5005675;28;20215;-90
2023/04/15 03:27:07;;;;;;;18.23;15.73;;;9.80;99.90;;;;;;5005100;28;20276;-82
2023/04/15 03:29:34;;;;;;;19.75;15.35;;;9.80;99.90;;;;;;5001476;28;20200;-84
2023/04/15 03:32:01;;;;;;;24.13;16.77;;;9.80;99.90;;;;;;5004777;28;20205;-83
2023/04/15 03:34:28;;;;;;;22.00;17.80;;;9.80;99.90;;;;;;5007772;28;20482;-84
2023/04/15 03:36:55;;;;;;;20.40;16.60;;;9.70;99.90;;;;;;4997772;28;20544;-83
2023/04/15 03:39:22;;;;;;;25.23;17.52;;;9.70;99.90;;;;;;4999016;28;20205;-83
2023/04/15 03:41:49;;;;;;;18.42;14.63;;;9.60;99.90;;;;;;5003547;28;20221;-83
2023/04/15 03:44:16;;;;;;;20.83;14.07;;;9.60;99.90;;;;;;5007340;28;20204;-83
2023/04/15 03:46:43;;;;;;;17.75;14.30;;;9.50;99.90;;;;;;5006578;28;20206;-85
2023/04/15 03:49:10;;;;;;;14.40;11.32;;;9.50;99.90;;;;;;4998228;28;20521;-84
2023/04/15 03:51:37;;;;;;;14.25;11.43;;;9.50;99.90;;;;;;4991757;28;20512;-83
2023/04/15 03:54:03;;;;;;;13.13;9.57;;;9.30;99.90;;;;;;5004389;28;20221;-83
2023/04/15 03:56:30;;;;;;;12.55;9.70;;;9.40;99.90;;;;;;4994410;28;20329;-84
2023/04/15 03:58:57;;;;;;;14.43;10.60;;;9.20;99.90;;;;;;5010101;28;20227;-84
2023/04/15 04:01:24;;;;;;;10.60;9.18;;;9.10;99.90;;;;;;5010695;28;20284;-85
2023/04/15 04:03:51;;;;;;;11.32;8.13;;;9.10;99.90;;;;;;5012605;28;20205;-84
2023/04/15 04:06:19;;;;;;;10.85;7.85;;;9.00;99.90;;;;;;5004852;28;20307;-85
2023/04/15 04:08:46;;;;;;;7.38;6.65;;;8.90;99.90;;;;;;5001817;28;20205;-87
2023/04/15 04:11:12;;;;;;;5.63;5.10;;;8.80;99.90;;;;;;5013618;28;20209;-83
2023/04/15 04:13:40;;;;;;;6.25;5.20;;;9.70;99.90;;;;;;5007341;28;20216;-82
2023/04/15 04:16:07;;;;;;;5.32;4.82;;;8.70;99.90;;;;;;5004301;28;20397;-85
2023/04/15 04:18:34;;;;;;;4.80;4.20;;;8.60;99.90;;;;;;5016263;28;20310;-84
2023/04/15 04:21:01;;;;;;;5.00;4.50;;;8.60;99.90;;;;;;5011026;28;20210;-85
2023/04/15 04:23:28;;;;;;;4.03;3.72;;;8.50;99.90;;;;;;5004043;28;20525;-87
2023/04/15 04:25:55;;;;;;;6.35;4.30;;;8.50;99.90;;;;;;5019202;28;20440;-86
2023/04/15 04:28:22;;;;;;;3.95;3.55;;;8.50;99.90;;;;;;5014947;28;20213;-82
2023/04/15 04:30:49;;;;;;;4.07;3.78;;;8.50;99.90;;;;;;5010983;28;20205;-85
2023/04/15 04:33:16;;;;;;;5.57;4.05;;;8.50;99.90;;;;;;5000170;28;20272;-85
2023/04/15 04:35:43;;;;;;;3.40;3.10;;;8.60;99.90;;;;;;5033417;28;20201;-83
2023/04/15 04:38:10;;;;;;;3.90;3.60;;;8.60;99.90;;;;;;5017894;28;20220;-84
2023/04/15 04:40:37;;;;;;;6.10;4.00;;;8.50;99.90;;;;;;5015281;28;20210;-84
2023/04/15 04:43:04;;;;;;;2.70;2.50;;;8.60;99.90;;;;;;5016992;28;20229;-82
2023/04/15 04:45:30;;;;;;;2.67;2.47;;;8.60;99.90;;;;;;5005226;28;20209;-83
2023/04/15 04:47:58;;;;;;;4.05;3.75;;;8.60;99.90;;;;;;5004931;28;20220;-86
2023/04/15 04:50:24;;;;;;;2.58;2.10;;;8.70;99.90;;;;;;5006426;28;20260;-85
2023/04/15 04:52:52;;;;;;;2.05;1.85;;;8.80;99.90;;;;;;5010655;28;20208;-88
2023/04/15 04:55:19;;;;;;;1.73;1.63;;;8.60;99.90;;;;;;5013628;28;20209;-86
2023/04/15 04:57:46;;;;;;;2.58;2.30;;;8.60;99.90;;;;;;5006855;28;20251;-85
2023/04/15 05:00:13;;;;;;;2.10;1.90;;;8.60;99.90;;;;;;5005677;28;20224;-85
2023/04/15 05:02:42;;;;;;;3.65;2.13;;;8.70;99.90;;;;;;5007462;28;20232;-85
2023/04/15 05:05:10;;;;;;;2.38;1.90;;;8.70;99.90;;;;;;5002722;28;20210;-83
2023/04/15 05:07:38;;;;;;;2.60;1.98;;;8.70;99.90;;;;;;5002986;28;20412;-84
2023/04/15 05:10:06;;;;;;;2.05;1.95;;;8.80;99.90;;;;;;5009643;28;20498;-82
2023/04/15 05:12:34;;;;;;;2.80;2.08;;;8.90;99.90;;;;;;5011864;28;20556;-82
2023/04/15 05:15:01;;;;;;;1.58;1.48;;;8.80;99.90;;;;;;5008617;28;20213;-82
2023/04/15 05:17:30;;;;;;;2.00;1.80;;;8.80;99.90;;;;;;5012393;28;20196;-86
2023/04/15 05:19:57;;;;;;;1.52;1.42;;;8.70;99.90;;;;;;5018152;28;20247;-83
2023/04/15 05:22:24;;;;;;;2.25;1.35;;;8.90;99.90;;;;;;5001606;28;20240;-85
2023/04/15 05:24:50;;;;;;;2.10;1.90;;;8.80;99.90;;;;;;5007695;28;20201;-82
2023/04/15 05:27:18;;;;;;;1.75;1.65;;;8.70;99.90;;;;;;5007240;28;20217;-85
2023/04/15 05:29:45;;;;;;;1.55;1.45;;;8.70;99.90;;;;;;5018615;28;20397;-84
2023/04/15 05:32:12;;;;;;;2.75;2.10;;;8.80;99.90;;;;;;5010618;28;20523;-86
2023/04/15 05:34:39;;;;;;;2.10;2.00;;;8.80;99.90;;;;;;5005921;28;20210;-85
2023/04/15 05:37:06;;;;;;;2.20;2.00;;;8.90;99.90;;;;;;5004390;28;20256;-86
2023/04/15 05:39:33;;;;;;;2.40;2.20;;;9.00;99.90;;;;;;5005254;28;20232;-87
2023/04/15 05:42:01;;;;;;;3.15;2.50;;;9.00;99.90;;;;;;5014746;28;20260;-86
2023/04/15 05:44:28;;;;;;;2.03;1.88;;;9.20;99.90;;;;;;5006504;28;20279;-85
2023/04/15 05:46:55;;;;;;;1.95;1.75;;;9.20;99.90;;;;;;5008612;28;20209;-85
2023/04/15 05:49:22;;;;;;;3.33;2.00;;;9.60;99.90;;;;;;5007631;28;20232;-86
2023/04/15 05:51:50;;;;;;;1.75;1.48;;;9.50;99.90;;;;;;5014582;28;20203;-87
2023/04/15 05:54:17;;;;;;;1.58;1.48;;;9.70;99.90;;;;;;5009730;28;20271;-84
2023/04/15 05:56:45;;;;;;;1.23;1.15;;;9.70;99.90;;;;;;4989473;28;20445;-86
2023/04/15 05:59:12;;;;;;;1.98;1.60;;;9.70;99.90;;;;;;5002395;28;20451;-83
2023/04/15 06:01:39;;;;;;;1.55;1.33;;;9.70;99.90;;;;;;5017037;28;20283;-85
2023/04/15 06:04:06;;;;;;;1.58;1.23;;;9.80;99.90;;;;;;5004427;28;20221;-85
2023/04/15 06:06:33;;;;;;;0.90;0.90;;;9.90;99.90;;;;;;5002823;28;20216;-83
2023/04/15 06:09:00;;;;;;;1.13;1.02;;;9.90;99.90;;;;;;4994390;28;20223;-85
2023/04/15 06:11:27;;;;;;;0.90;0.90;;;10.10;99.90;;;;;;5003716;28;20459;-85
2023/04/15 06:13:55;;;;;;;3.75;1.38;;;10.10;99.90;;;;;;5012323;28;20215;-85
2023/04/15 06:16:23;;;;;;;1.67;1.50;;;10.20;99.90;;;;;;5008780;28;20254;-85
2023/04/15 06:18:50;;;;;;;1.08;0.95;;;10.40;99.90;;;;;;5000651;28;20280;-88
2023/04/15 06:21:17;;;;;;;1.52;1.10;;;10.60;99.90;;;;;;5001497;28;20255;-86
2023/04/15 06:23:45;;;;;;;4.45;1.17;;;10.50;99.90;;;;;;4997225;28;20237;-85
2023/04/15 06:26:12;;;;;;;1.38;1.27;;;10.40;99.90;;;;;;5001352;28;20257;-86
2023/04/15 06:28:39;;;;;;;2.70;1.60;;;10.40;99.90;;;;;;5003387;28;20409;-86
2023/04/15 06:31:06;;;;;;;1.30;1.20;;;10.30;99.90;;;;;;5002284;28;20278;-85
2023/04/15 06:33:32;;;;;;;2.75;1.20;;;10.40;99.90;;;;;;5002584;28;20213;-83
2023/04/15 06:36:02;;;;;;;1.15;1.05;;;10.30;99.90;;;;;;5010835;28;20208;-84
2023/04/15 06:38:31;;;;;;;1.23;0.93;;;10.30;99.90;;;;;;4998761;28;20199;-85
2023/04/15 06:40:58;;;;;;;1.27;1.17;;;10.30;99.90;;;;;;5006163;28;20210;-84
2023/04/15 06:43:27;;;;;;;2.95;1.10;;;10.50;99.90;;;;;;5000374;28;20271;-85
2023/04/15 06:45:55;;;;;;;1.73;1.45;;;10.50;99.90;;;;;;4997711;28;20446;-86
2023/04/15 06:48:23;;;;;;;1.67;1.58;;;10.80;99.90;;;;;;5011087;28;20390;-85
2023/04/15 06:50:50;;;;;;;4.45;1.35;;;10.70;99.90;;;;;;5004053;28;20198;-86
2023/04/15 06:53:17;;;;;;;1.88;1.25;;;10.70;99.90;;;;;;5021599;28;20200;-83
2023/04/15 06:55:44;;;;;;;2.25;1.73;;;10.80;99.90;;;;;;5025467;28;20192;-82
2023/04/15 06:58:13;;;;;;;1.70;1.60;;;10.70;99.90;;;;;;5020577;28;20207;-84
2023/04/15 07:00:40;;;;;;;1.42;1.33;;;10.90;99.90;;;;;;5009534;28;20191;-85
2023/04/15 07:03:11;;;;;;;5.72;1.88;;;11.40;99.90;;;;;;5006238;28;20235;-84
2023/04/15 07:05:39;;;;;;;1.80;1.50;;;11.60;99.90;;;;;;5004859;28;20218;-82
2023/04/15 07:08:08;;;;;;;1.23;1.13;;;11.60;99.90;;;;;;5006008;28;20221;-85
2023/04/15 07:10:36;;;;;;;1.05;1.00;;;11.40;99.90;;;;;;4999142;28;20214;-86
2023/04/15 07:13:03;;;;;;;1.70;1.10;;;11.30;99.90;;;;;;5012839;28;20221;-84
2023/04/15 07:15:30;;;;;;;3.20;1.73;;;11.20;99.90;;;;;;5009711;28;20218;-84
2023/04/15 07:17:57;;;;;;;1.50;1.27;;;11.40;99.90;;;;;;5000583;28;20206;-84
2023/04/15 07:20:24;;;;;;;3.05;1.35;;;11.60;99.90;;;;;;4999930;28;20301;-83
2023/04/15 07:22:52;;;;;;;1.70;1.10;;;11.90;99.90;;;;;;5007442;28;20307;-83
2023/04/15 07:25:19;;;;;;;1.23;1.13;;;12.30;99.90;;;;;;5008132;28;20452;-83
2023/04/15 07:27:46;;;;;;;1.40;1.30;;;12.50;99.90;;;;;;5007695;28;20293;-84
2023/04/15 07:30:13;;;;;;;3.70;1.40;;;12.60;99.90;;;;;;5014941;28;20515;-85
2023/04/15 07:32:41;;;;;;;1.10;1.00;;;12.50;99.90;;;;;;5013149;28;20229;-83
2023/04/15 07:35:08;;;;;;;2.35;1.33;;;12.60;99.90;;;;;;5011767;28;20215;-84
2023/04/15 07:37:36;;;;;;;1.70;1.13;;;12.90;99.90;;;;;;5000152;28;20270;-83
2023/04/15 07:40:03;;;;;;;1.20;1.08;;;13.00;99.90;;;;;;5001334;28;20233;-85
2023/04/15 07:42:31;;;;;;;2.45;1.10;;;12.70;99.90;;;;;;5005348;28;20233;-85
2023/04/15 07:44:57;;;;;;;10.25;5.00;;;12.10;99.90;;;;;;5006531;28;20244;-86
2023/04/15 07:47:25;;;;;;;10.90;4.30;;;12.20;99.90;;;;;;5019124;28;20382;-85
2023/04/15 07:49:53;;;;;;;111.53;36.95;;;12.30;99.90;;;;;;5013025;28;20461;-84
2023/04/15 07:52:19;;;;;;;5.07;3.20;;;12.10;99.90;;;;;;5018071;28;20354;-83
2023/04/15 07:54:47;;;;;;;1.08;0.98;;;12.30;99.90;;;;;;5006493;28;20258;-85
2023/04/15 07:57:15;;;;;;;11.25;4.90;;;12.40;99.90;;;;;;5020330;28;20250;-84
2023/04/15 07:59:43;;;;;;;41.33;17.98;;;12.50;99.90;;;;;;5004534;28;20213;-84
2023/04/15 08:02:10;;;;;;;10.90;4.97;;;13.00;99.90;;;;;;5012594;28;20271;-84
2023/04/15 08:04:37;;;;;;;3.70;1.08;;;13.70;99.90;;;;;;5012305;28;20216;-84
2023/04/15 08:07:05;;;;;;;1.13;0.85;;;13.60;99.90;;;;;;5001660;28;20213;-85
2023/04/15 08:09:31;;;;;;;1.15;1.00;;;13.90;99.90;;;;;;5008204;28;20245;-83
2023/04/15 08:11:58;;;;;;;1.77;1.27;;;14.10;99.90;;;;;;5003577;28;20215;-83
2023/04/15 08:14:25;;;;;;;1.00;0.90;;;14.70;99.90;;;;;;5006785;28;20205;-84
2023/04/15 08:16:52;;;;;;;2.17;1.40;;;15.10;99.90;;;;;;5009765;28;20522;-82
2023/04/15 08:19:20;;;;;;;1.55;1.20;;;15.00;99.90;;;;;;4994215;28;20459;-84
2023/04/15 08:21:46;;;;;;;0.75;0.75;;;15.10;99.90;;;;;;5004204;28;20198;-84
2023/04/15 08:24:14;;;;;;;2.67;1.20;;;15.20;99.90;;;;;;5003928;28;20221;-83
2023/04/15 08:26:41;;;;;;;14.20;6.53;;;15.50;99.90;;;;;;5010775;28;20255;-84
2023/04/15 08:29:08;;;;;;;6.87;2.00;;;16.40;99.90;;;;;;5011888;28;20201;-84
2023/04/15 08:31:35;;;;;;;0.93;0.90;;;17.80;99.90;;;;;;5006530;28;20635;-86
2023/04/15 08:34:02;;;;;;;0.97;0.83;;;20.20;99.90;;;;;;5007478;28;20523;-83
2023/04/15 08:36:31;;;;;;;5.00;2.47;;;22.10;99.90;;;;;;5014809;28;20476;-82
2023/04/15 08:38:58;;;;;;;2.00;1.70;;;23.10;99.50;;;;;;4996864;28;20442;-84
2023/04/15 08:41:33;;;;;;;6.97;2.90;;;25.40;97.00;;;;;;5014206;28;20687;-83
2023/04/15 08:44:04;;;;;;;3.93;2.23;;;26.70;84.40;;;;;;5007059;28;20490;-82
2023/04/15 08:46:35;;;;;;;1.67;1.10;;;27.10;77.00;;;;;;5006390;28;20430;-81
2023/04/15 08:49:03;;;;;;;1.17;0.97;;;25.50;77.20;;;;;;5010188;28;20437;-81
2023/04/15 08:51:31;;;;;;;12.57;5.90;;;25.10;80.70;;;;;;5011344;28;20493;-83
2023/04/15 08:54:00;;;;;;;10.17;4.27;;;25.00;83.80;;;;;;5010426;28;20446;-83
2023/04/15 08:56:29;;;;;;;1.00;0.70;;;24.30;81.10;;;;;;5014087;28;20653;-81
2023/04/15 08:58:58;;;;;;;0.93;0.80;;;23.20;91.00;;;;;;5008484;28;20429;-83
2023/04/15 09:01:25;;;;;;;1.57;1.27;;;22.50;93.10;;;;;;5011104;28;20432;-84
2023/04/15 09:03:55;;;;;;;2.20;1.23;;;23.40;92.70;;;;;;5003414;28;20768;-82
2023/04/15 09:06:24;;;;;;;6.83;1.83;;;24.70;90.80;;;;;;5012559;28;20423;-82
2023/04/15 09:08:51;;;;;;;1.63;0.90;;;25.50;88.30;;;;;;5012916;28;20452;-82
2023/04/15 09:11:20;;;;;;;2.03;1.00;;;24.50;89.40;;;;;;5017941;28;20474;-80
2023/04/15 09:13:48;;;;;;;2.07;1.90;;;25.60;85.80;;;;;;5007938;28;20787;-83
2023/04/15 09:16:15;;;;;;;1.43;1.00;;;25.50;81.10;;;;;;5002500;28;20448;-82
2023/04/15 09:18:42;;;;;;;0.87;0.80;;;23.40;84.90;;;;;;5014147;28;20453;-83
2023/04/15 09:21:10;;;;;;;2.50;1.30;;;22.50;93.10;;;;;;5010749;28;20447;-80
2023/04/15 09:23:38;;;;;;;14.90;6.37;;;21.10;91.60;;;;;;5009902;28;20477;-84
2023/04/15 09:26:05;;;;;;;3.50;1.47;;;21.20;94.40;;;;;;5007652;28;20638;-82
2023/04/15 09:28:34;;;;;;;3.77;1.90;;;20.40;99.90;;;;;;5010123;28;20452;-81
2023/04/15 09:31:01;;;;;;;1.10;0.90;;;19.20;99.90;;;;;;5002860;28;20482;-83
2023/04/15 09:33:29;;;;;;;1.93;1.73;;;18.40;99.90;;;;;;5001753;28;20430;-82
2023/04/15 09:35:57;;;;;;;3.57;1.40;;;18.10;99.90;;;;;;5012321;28;20413;-84
2023/04/15 09:38:24;;;;;;;3.47;1.07;;;17.70;99.90;;;;;;5002683;28;20505;-81
2023/04/15 09:40:51;;;;;;;6.80;2.90;;;17.50;99.90;;;;;;5005236;28;20446;-81
2023/04/15 09:43:19;;;;;;;1.60;1.30;;;17.10;99.90;;;;;;5010260;28;20446;-82
2023/04/15 09:45:51;;;;;;;1.23;1.00;;;17.00;99.90;;;;;;5006252;28;20589;-83
2023/04/15 09:48:25;;;;;;;1.33;0.97;;;17.00;99.90;;;;;;5016087;28;20447;-83
2023/04/15 09:50:53;;;;;;;1.87;1.53;;;17.30;99.90;;;;;;5015265;28;20467;-81
2023/04/15 09:53:22;;;;;;;4.77;1.97;;;17.10;99.90;;;;;;5014507;28;20425;-82
2023/04/15 09:55:56;;;;;;;0.90;0.80;;;17.50;99.90;;;;;;5009267;28;20514;-83
2023/04/15 09:58:26;;;;;;;2.40;1.50;;;17.40;99.90;;;;;;5005256;28;20669;-81
2023/04/15 10:00:58;;;;;;;2.40;1.93;;;16.90;99.90;;;;;;5007339;28;20443;-80
2023/04/15 10:03:31;;;;;;;13.80;4.90;;;16.60;99.90;;;;;;5010533;28;20525;-80
2023/04/15 10:06:00;;;;;;;4.10;1.90;;;16.50;99.90;;;;;;5012189;28;20446;-82
2023/04/15 10:08:31;;;;;;;3.47;2.37;;;16.20;99.90;;;;;;5010249;28;20493;-82
2023/04/15 10:11:00;;;;;;;3.07;2.00;;;16.20;99.90;;;;;;5007320;28;20447;-81
2023/04/15 10:13:35;;;;;;;3.60;1.60;;;16.50;99.90;;;;;;5001983;28;20476;-80
2023/04/15 10:16:13;;;;;;;2.40;0.87;;;16.30;99.90;;;;;;5002997;28;20445;-80
2023/04/15 10:18:43;;;;;;;0.77;0.70;;;16.10;99.90;;;;;;5006483;28;20435;-82
2023/04/15 10:21:12;;;;;;;5.40;1.07;;;16.00;99.90;;;;;;4996661;28;20455;-81
2023/04/15 10:23:40;;;;;;;3.00;1.70;;;16.30;99.90;;;;;;5000176;28;20479;-82
2023/04/15 10:26:08;;;;;;;1.20;0.80;;;16.80;99.90;;;;;;4997771;28;20418;-81
2023/04/15 10:28:35;;;;;;;5.03;2.73;;;17.30;99.90;;;;;;5005115;28;20446;-81
2023/04/15 10:31:04;;;;;;;2.30;1.10;;;18.00;99.90;;;;;;5005937;28;20665;-82
2023/04/15 10:33:32;;;;;;;4.13;2.20;;;18.20;99.90;;;;;;5012906;28;20700;-83
2023/04/15 10:36:00;;;;;;;4.17;2.33;;;18.00;99.90;;;;;;4998137;28;20457;-80
2023/04/15 10:38:36;;;;;;;3.43;1.20;;;18.00;99.90;;;;;;5001972;28;20418;-82
2023/04/15 10:41:19;;;;;;;1.80;1.20;;;18.00;99.90;;;;;;5010685;28;20432;-82
2023/04/15 10:43:53;;;;;;;4.70;1.93;;;17.50;99.90;;;;;;4991433;28;20841;-81
2023/04/15 10:46:33;;;;;;;2.63;1.17;;;17.40;99.90;;;;;;5005054;28;20440;-81
2023/04/15 10:49:07;;;;;;;6.60;1.83;;;17.30;99.90;;;;;;5007115;28;20857;-81
2023/04/15 10:51:40;;;;;;;7.77;3.10;;;17.50;99.90;;;;;;5003733;28;20521;-85
2023/04/15 10:54:32;;;;;;;0.87;0.77;;;17.70;99.90;;;;;;5004775;28;20747;-81
2023/04/15 10:57:00;;;;;;;3.63;1.40;;;17.60;99.90;;;;;;4999086;28;20591;-82
2023/04/15 10:59:49;;;;;;;5.80;2.50;;;17.60;99.90;;;;;;4993992;28;20430;-81
2023/04/15 11:02:17;;;;;;;1.80;1.10;;;17.60;99.90;;;;;;4993502;28;20838;-82
2023/04/15 11:04:57;;;;;;;0.70;0.70;;;17.60;99.90;;;;;;4999416;28;20483;-81
2023/04/15 11:07:50;;;;;;;1.50;1.40;;;18.00;99.90;;;;;;5009634;28;20513;-80
2023/04/15 11:10:24;;;;;;;1.53;1.13;;;17.90;99.90;;;;;;5002506;28;20451;-81
2023/04/15 11:12:53;;;;;;;0.73;0.73;;;17.70;99.90;;;;;;5002130;28;20433;-81
2023/04/15 11:15:33;;;;;;;1.27;1.17;;;17.60;99.90;;;;;;5005985;28;20472;-81
2023/04/15 11:18:15;;;;;;;1.77;1.13;;;17.50;99.90;;;;;;4992214;28;20509;-81
2023/04/15 11:20:47;;;;;;;0.80;0.80;;;17.60;99.90;;;;;;5002459;28;20455;-80
2023/04/15 11:23:16;;;;;;;3.43;1.13;;;18.00;99.90;;;;;;5008899;28;20565;-82
2023/04/15 11:25:44;;;;;;;1.20;1.10;;;18.60;99.90;;;;;;5000409;28;20440;-81
2023/04/15 11:28:12;;;;;;;6.03;3.10;;;18.70;99.90;;;;;;4999784;28;20443;-82
2023/04/15 11:30:41;;;;;;;5.20;1.50;;;18.60;99.90;;;;;;5010187;28;20515;-83
2023/04/15 11:33:10;;;;;;;1.90;1.80;;;19.00;99.90;;;;;;5011982;28;20430;-81
2023/04/15 11:35:40;;;;;;;2.40;1.60;;;19.20;99.90;;;;;;5011581;28;20590;-81
2023/04/15 11:38:13;;;;;;;1.27;1.00;;;19.80;99.90;;;;;;5006518;28;20405;-82
2023/04/15 11:40:40;;;;;;;1.33;1.23;;;19.40;99.90;;;;;;5018189;28;20810;-81
2023/04/15 11:43:19;;;;;;;3.37;1.10;;;18.90;99.90;;;;;;4997113;28;20879;-79
2023/04/15 11:45:52;;;;;;;1.03;1.00;;;19.10;99.90;;;;;;5002212;28;20457;-80
2023/04/15 11:48:21;;;;;;;2.70;1.40;;;19.30;99.90;;;;;;4998937;28;20414;-81
2023/04/15 11:51:02;;;;;;;0.83;0.83;;;19.40;99.90;;;;;;5002644;28;20633;-81
2023/04/15 11:53:49;;;;;;;1.10;1.00;;;19.80;99.90;;;;;;4997778;28;20451;-80
2023/04/15 11:56:19;;;;;;;1.60;1.33;;;19.60;99.90;;;;;;4999148;28;20760;-80
2023/04/15 11:58:49;;;;;;;1.00;0.90;;;19.10;99.90;;;;;;4996452;28;20421;-80
2023/04/15 12:01:17;;;;;;;1.20;1.10;;;19.00;99.90;;;;;;5003096;28;20421;-81
2023/04/15 12:03:48;;;;;;;1.00;0.80;;;19.50;99.90;;;;;;5007779;28;20483;-81
2023/04/15 12:06:20;;;;;;;0.80;0.80;;;19.60;99.90;;;;;;4998428;28;20414;-82
2023/04/15 12:09:06;;;;;;;3.80;1.30;;;19.50;99.90;;;;;;4993726;28;20810;-86
2023/04/15 12:11:43;;;;;;;1.13;1.03;;;19.50;99.90;;;;;;5002101;28;20435;-81
2023/04/15 12:14:11;;;;;;;1.00;0.90;;;19.70;99.90;;;;;;4997329;28;20419;-80
2023/04/15 12:17:00;;;;;;;3.50;1.50;;;19.60;99.90;;;;;;4993174;28;20466;-81
2023/04/15 12:19:33;;;;;;;0.80;0.80;;;19.70;99.90;;;;;;4998341;28;20514;-81
2023/04/15 12:22:02;;;;;;;5.03;1.40;;;19.80;99.90;;;;;;4992276;28;20483;-79
2023/04/15 12:24:34;;;;;;;1.07;0.80;;;19.50;99.90;;;;;;4996686;28;20843;-80
2023/04/15 12:27:03;;;;;;;2.60;1.27;;;19.40;99.90;;;;;;5001825;28;20440;-81
2023/04/15 12:29:32;;;;;;;0.60;0.60;;;19.50;99.90;;;;;;5008851;28;20492;-82
2023/04/15 12:32:13;;;;;;;1.47;1.20;;;19.30;99.90;;;;;;5006406;28;20425;-81
2023/04/15 12:34:49;;;;;;;1.03;0.93;;;19.10;99.90;;;;;;5004331;28;20438;-79
2023/04/15 12:37:16;;;;;;;1.90;1.40;;;18.90;99.90;;;;;;5008720;28;20432;-81
2023/04/15 12:39:47;;;;;;;1.13;1.03;;;18.70;99.90;;;;;;5004203;28;20682;-79
2023/04/15 12:42:16;;;;;;;1.27;1.13;;;18.90;99.90;;;;;;5004019;28;20472;-81
2023/04/15 12:44:43;;;;;;;0.90;0.90;;;18.70;99.90;;;;;;4999813;28;20556;-82
2023/04/15 12:47:11;;;;;;;1.00;0.80;;;19.00;99.90;;;;;;5004038;28;20420;-81
2023/04/15 12:49:38;;;;;;;1.00;0.90;;;19.00;99.90;;;;;;4998000;28;20671;-79